Time;durP1;ratioP1;P1;durP2;ratioP2;P2;SDS_P1;SDS_P2;PMS_P1;PMS_P2;Temp;Humidity;BMP_temperature;BMP_pressure;BME280_temperature;BME280_humidity;BME280_pressure;Samples;Min_cycle;Max_cycle;Signal;HPM_P1;HPM_P2
2024/01/02 00:00:14;;;;;;;;;0.00;0.00;;;;;12.15;93.99;99879.66;5080916;28;50571;-62
2024/01/02 00:02:40;;;;;;;;;0.00;0.00;;;;;12.12;93.95;99874.47;5076804;28;45471;-63
2024/01/02 00:05:05;;;;;;;;;0.00;0.00;;;;;12.22;93.97;99885.56;5079799;28;45376;-62
2024/01/02 00:07:31;;;;;;;;;0.00;0.00;;;;;12.24;94.09;99875.63;5072787;27;45572;-62
2024/01/02 00:09:56;;;;;;;;;0.00;0.00;;;;;12.26;94.20;99887.09;5081051;28;45442;-62
2024/01/02 00:12:21;;;;;;;;;0.00;0.00;;;;;12.20;94.17;99872.25;5080766;28;51905;-62
2024/01/02 00:14:47;;;;;;;;;0.00;0.00;;;;;12.26;94.22;99879.06;5080142;28;49178;-62
2024/01/02 00:17:12;;;;;;;;;0.00;0.00;;;;;12.29;93.98;99878.06;5077792;27;66814;-62
2024/01/02 00:19:37;;;;;;;;;0.00;0.00;;;;;12.25;94.23;99850.59;5080777;28;45300;-62
2024/01/02 00:22:03;;;;;;;;;0.00;0.00;;;;;12.26;94.29;99852.31;5080384;28;57685;-62
2024/01/02 00:24:28;;;;;;;;;0.00;0.00;;;;;12.20;94.38;99834.78;5079756;28;45436;-62
2024/01/02 00:26:54;;;;;;;;;0.00;0.00;;;;;12.34;94.47;99849.25;5064850;27;47443;-62
2024/01/02 00:29:19;;;;;;;;;0.00;0.00;;;;;12.21;94.63;99828.50;5085260;27;45331;-63
2024/01/02 00:31:44;;;;;;;;;1.50;0.00;;;;;12.35;94.36;99843.81;5062608;28;45402;-62
2024/01/02 00:34:11;;;;;;;;;0.00;0.00;;;;;12.21;94.39;99817.81;5080964;28;45311;-62
2024/01/02 00:36:36;;;;;;;;;1.00;0.00;;;;;12.33;94.51;99821.63;5078117;28;46536;-62
2024/01/02 00:39:02;;;;;;;;;0.00;0.00;;;;;12.32;94.74;99811.00;5079953;28;57008;-62
2024/01/02 00:41:28;;;;;;;;;0.00;0.00;;;;;12.35;94.76;99792.13;5080306;28;45428;-62
2024/01/02 00:43:53;;;;;;;;;0.00;0.00;;;;;12.36;94.76;99786.69;5080722;28;45297;-62
2024/01/02 00:46:18;;;;;;;;;0.00;0.00;;;;;12.31;94.83;99769.13;5078679;28;66148;-62
2024/01/02 00:48:43;;;;;;;;;1.75;0.00;;;;;12.37;95.01;99775.00;5063450;28;57452;-62
2024/01/02 00:51:09;;;;;;;;;0.00;0.00;;;;;12.36;94.89;99764.38;5061785;28;60169;-63
2024/01/02 00:53:34;;;;;;;;;0.00;0.00;;;;;12.36;94.98;99770.63;5062086;28;52841;-62
2024/01/02 00:56:00;;;;;;;;;1.00;0.00;;;;;12.30;95.12;99740.66;5079048;28;55326;-62
2024/01/02 00:58:25;;;;;;;;;0.00;0.00;;;;;12.41;94.72;99760.53;5086082;27;45430;-62
2024/01/02 01:00:51;;;;;;;;;0.00;0.00;;;;;12.40;95.28;99764.13;5090513;27;45714;-62
2024/01/02 01:03:16;;;;;;;;;0.00;0.00;;;;;12.35;95.30;99746.63;5080410;28;45481;-62
2024/01/02 01:05:41;;;;;;;;;0.00;0.00;;;;;12.36;95.01;99740.28;5078913;28;46599;-62
2024/01/02 01:08:07;;;;;;;;;1.00;0.00;;;;;12.45;94.95;99761.22;5080663;27;45489;-62
2024/01/02 01:10:32;;;;;;;;;0.00;0.00;;;;;12.52;95.40;99748.34;5080135;27;45421;-63
2024/01/02 01:12:57;;;;;;;;;0.00;0.00;;;;;12.46;95.03;99732.63;5080191;28;45438;-62
2024/01/02 01:15:23;;;;;;;;;0.50;0.00;;;;;12.50;95.15;99748.44;5078728;28;45375;-62
2024/01/02 01:17:48;;;;;;;;;0.00;0.00;;;;;12.51;95.06;99726.06;5078855;27;45367;-62
2024/01/02 01:20:13;;;;;;;;;0.00;0.00;;;;;12.45;95.21;99718.38;5079694;28;47702;-62
2024/01/02 01:22:39;;;;;;;;;0.00;0.00;;;;;12.50;95.13;99707.44;5079853;28;45538;-62
2024/01/02 01:25:05;;;;;;;;;0.00;0.00;;;;;12.54;95.22;99712.50;5078957;28;45449;-62
2024/01/02 01:27:30;;;;;;;;;0.00;0.00;;;;;12.56;94.93;99707.06;5066104;27;45816;-62
2024/01/02 01:29:55;;;;;;;;;0.00;0.00;;;;;12.62;95.26;99713.88;5080077;28;45302;-62
2024/01/02 01:32:21;;;;;;;;;0.00;0.00;;;;;12.63;95.22;99712.91;5079789;28;45430;-62
2024/01/02 01:34:46;;;;;;;;;0.00;0.00;;;;;12.58;94.99;99703.34;5078432;28;54966;-62
2024/01/02 01:37:11;;;;;;;;;0.75;0.00;;;;;12.63;95.06;99713.81;5078358;27;45359;-62
2024/01/02 01:39:36;;;;;;;;;0.00;0.00;;;;;12.56;94.97;99693.66;5078948;28;58039;-62
2024/01/02 01:42:02;;;;;;;;;0.25;0.00;;;;;12.51;95.05;99691.28;5079687;28;45327;-62
2024/01/02 01:44:28;;;;;;;;;0.00;0.00;;;;;12.58;95.29;99715.88;5079673;28;45421;-62
2024/01/02 01:46:53;;;;;;;;;0.00;0.00;;;;;12.54;95.27;99691.06;5079280;28;45323;-62
2024/01/02 01:49:19;;;;;;;;;1.00;0.00;;;;;12.54;95.35;99696.44;5075001;27;45409;-62
2024/01/02 01:51:46;;;;;;;;;0.00;0.00;;;;;12.63;95.20;99702.22;5079838;28;45573;-62
2024/01/02 01:54:12;;;;;;;;;2.00;0.00;;;;;12.65;95.32;99697.66;5079506;28;46301;-62
2024/01/02 01:56:39;;;;;;;;;0.00;0.00;;;;;12.66;95.22;99705.56;5079495;28;45413;-62
2024/01/02 01:59:05;;;;;;;;;0.00;0.00;;;;;12.66;95.27;99705.56;5078798;27;45564;-62
2024/01/02 02:01:32;;;;;;;;;0.00;0.00;;;;;12.71;95.31;99713.34;5079360;28;45319;-62
2024/01/02 02:03:59;;;;;;;;;1.00;0.00;;;;;12.62;95.09;99697.81;5079348;28;45695;-63
2024/01/02 02:06:24;;;;;;;;;0.00;0.00;;;;;12.60;95.00;99690.72;5079245;28;45660;-62
2024/01/02 02:08:50;;;;;;;;;0.00;0.00;;;;;12.68;95.57;99706.38;5060084;28;45798;-62
2024/01/02 02:11:16;;;;;;;;;0.00;0.00;;;;;12.72;95.32;99707.91;5079290;28;45416;-62
2024/01/02 02:13:42;;;;;;;;;0.00;0.00;;;;;12.71;95.39;99700.84;5079213;28;46379;-62
2024/01/02 02:16:08;;;;;;;;;0.00;0.00;;;;;12.68;95.91;99705.47;5079027;28;45468;-62
2024/01/02 02:18:33;;;;;;;;;0.00;0.00;;;;;12.58;95.90;99681.09;5077828;27;45423;-62
2024/01/02 02:20:59;;;;;;;;;0.00;0.00;;;;;12.59;95.80;99683.63;5079736;27;45661;-62
2024/01/02 02:23:24;;;;;;;;;0.00;0.00;;;;;12.72;95.75;99707.06;5077007;28;45434;-62
2024/01/02 02:25:49;;;;;;;;;0.00;0.00;;;;;12.73;95.74;99690.91;5079242;28;45405;-62
2024/01/02 02:28:14;;;;;;;;;1.00;0.00;;;;;12.72;95.67;99705.22;5077373;27;57798;-62
2024/01/02 02:30:40;;;;;;;;;0.00;0.00;;;;;12.73;95.95;99709.63;5079178;28;45422;-62
2024/01/02 02:33:05;;;;;;;;;0.00;0.00;;;;;12.71;95.75;99690.13;5078247;28;63007;-62
2024/01/02 02:35:30;;;;;;;;;0.00;0.00;;;;;12.74;95.58;99697.09;5078643;28;54915;-62
2024/01/02 02:37:56;;;;;;;;;1.00;0.00;;;;;12.66;95.48;99692.19;5079530;27;45763;-62
2024/01/02 02:40:21;;;;;;;;;0.00;0.00;;;;;12.68;95.52;99690.31;5081796;28;45320;-62
2024/01/02 02:42:47;;;;;;;;;0.00;0.00;;;;;12.68;96.05;99694.78;5082398;28;45415;-62
2024/01/02 02:45:12;;;;;;;;;0.00;0.00;;;;;12.70;95.91;99695.56;5082480;28;45355;-62
2024/01/02 02:47:38;;;;;;;;;2.75;0.00;;;;;12.77;95.71;99688.91;5084745;27;45312;-62
2024/01/02 02:50:05;;;;;;;;;0.00;0.00;;;;;12.71;95.97;99681.22;5079863;27;45353;-62
2024/01/02 02:52:32;;;;;;;;;0.00;0.00;;;;;12.71;95.93;99675.84;5082315;28;46032;-62
2024/01/02 02:54:57;;;;;;;;;0.00;0.00;;;;;12.77;95.83;99686.22;5082293;28;45636;-62
2024/01/02 02:57:23;;;;;;;;;0.00;0.00;;;;;12.76;95.86;99684.47;5081495;27;45340;-62
2024/01/02 02:59:48;;;;;;;;;1.00;0.00;;;;;12.79;95.90;99681.63;5088148;27;45523;-62
2024/01/02 03:02:14;;;;;;;;;0.00;0.00;;;;;12.75;96.09;99672.91;5081939;28;45388;-62
2024/01/02 03:04:39;;;;;;;;;0.00;0.00;;;;;12.75;96.07;99678.28;5082253;28;45406;-62
2024/01/02 03:07:04;;;;;;;;;0.75;0.00;;;;;12.77;95.78;99676.38;5081195;28;45319;-62
2024/01/02 03:09:30;;;;;;;;;0.00;0.00;;;;;12.76;95.89;99668.41;5086255;27;55366;-62
2024/01/02 03:11:55;;;;;;;;;1.00;0.00;;;;;12.79;96.07;99674.44;5063480;28;53407;-62
2024/01/02 03:14:20;;;;;;;;;0.00;0.00;;;;;12.71;95.87;99671.38;5081881;28;52459;-62
2024/01/02 03:16:46;;;;;;;;;0.50;0.00;;;;;12.75;96.04;99672.91;5081037;28;45458;-62
2024/01/02 03:19:11;;;;;;;;;0.00;0.00;;;;;12.85;96.08;99691.13;5065119;28;45423;-62
2024/01/02 03:21:36;;;;;;;;;0.00;0.00;;;;;12.82;96.32;99667.22;5081393;28;58215;-62
2024/01/02 03:24:02;;;;;;;;;0.75;0.00;;;;;12.79;95.85;99666.41;5063653;28;45424;-62
2024/01/02 03:26:28;;;;;;;;;0.00;0.00;;;;;12.70;96.36;99647.38;5079953;28;45331;-62
2024/01/02 03:28:53;;;;;;;;;0.00;0.00;;;;;12.81;95.95;99660.97;5071664;28;45566;-63
2024/01/02 03:31:18;;;;;;;;;0.00;0.00;;;;;12.81;96.18;99658.28;5081199;28;51449;-62
2024/01/02 03:33:44;;;;;;;;;0.00;0.00;;;;;12.77;96.03;99654.09;5059476;28;45319;-62
2024/01/02 03:36:13;;;;;;;;;0.00;0.00;;;;;12.84;96.03;99660.78;5077655;28;45830;-62
2024/01/02 03:38:39;;;;;;;;;0.00;0.00;;;;;12.77;96.61;99630.00;5079494;28;45679;-62
2024/01/02 03:41:04;;;;;;;;;0.00;0.00;;;;;12.77;95.66;99646.06;5080054;28;47834;-62
2024/01/02 03:43:30;;;;;;;;;0.00;0.00;;;;;12.78;96.07;99639.75;5081655;28;45449;-62
2024/01/02 03:45:55;;;;;;;;;0.00;0.00;;;;;12.70;96.08;99615.25;5080200;28;45433;-62
2024/01/02 03:48:23;;;;;;;;;0.00;0.00;;;;;12.76;96.25;99620.22;5088999;27;60320;-62
2024/01/02 03:50:48;;;;;;;;;0.75;0.00;;;;;12.75;96.24;99618.50;5070764;28;45390;-62
2024/01/02 03:53:14;;;;;;;;;0.00;0.00;;;;;12.79;96.36;99617.34;5081795;28;45391;-62
2024/01/02 03:55:39;;;;;;;;;0.00;0.00;;;;;12.76;95.96;99621.09;5080861;28;56556;-62
2024/01/02 03:58:04;;;;;;;;;0.75;0.00;;;;;12.72;96.30;99608.81;5085940;27;45404;-62
2024/01/02 04:00:29;;;;;;;;;0.00;0.00;;;;;12.79;96.06;99614.69;5080664;28;56571;-62
2024/01/02 04:02:55;;;;;;;;;0.00;0.00;;;;;12.78;96.39;99629.91;5080936;28;56281;-62
2024/01/02 04:05:20;;;;;;;;;0.00;0.00;;;;;12.77;96.54;99625.47;5080679;28;57919;-62
2024/01/02 04:07:46;;;;;;;;;0.00;0.00;;;;;12.72;96.15;99621.38;5082891;27;45442;-62
2024/01/02 04:10:11;;;;;;;;;0.00;0.00;;;;;12.72;96.37;99626.72;5079359;28;47642;-62
2024/01/02 04:12:36;;;;;;;;;0.00;0.00;;;;;12.77;96.30;99649.59;5081228;28;45346;-62
2024/01/02 04:15:02;;;;;;;;;0.00;0.00;;;;;12.70;96.46;99636.66;5080528;28;54150;-62
2024/01/02 04:17:27;;;;;;;;;0.00;0.00;;;;;12.75;96.33;99659.53;5080167;27;45459;-62
2024/01/02 04:19:52;;;;;;;;;0.00;0.00;;;;;12.68;96.14;99634.06;5084729;27;50590;-62
2024/01/02 04:22:17;;;;;;;;;0.00;0.00;;;;;12.81;96.10;99649.41;5081034;28;45382;-62
2024/01/02 04:24:43;;;;;;;;;0.00;0.00;;;;;12.72;95.94;99634.75;5061993;28;60200;-62
2024/01/02 04:27:08;;;;;;;;;0.00;0.00;;;;;12.83;96.21;99651.06;5061392;28;59783;-62
2024/01/02 04:29:33;;;;;;;;;0.00;0.00;;;;;12.82;96.28;99651.16;5081639;27;64944;-62
2024/01/02 04:31:59;;;;;;;;;0.00;0.00;;;;;12.73;95.99;99628.44;5080212;28;56692;-62
2024/01/02 04:34:24;;;;;;;;;1.00;0.00;;;;;12.82;96.06;99649.31;5080807;28;45442;-62
2024/01/02 04:36:50;;;;;;;;;0.75;0.00;;;;;12.75;96.10;99637.25;5079854;28;45382;-62
2024/01/02 04:39:15;;;;;;;;;0.00;0.00;;;;;12.71;95.93;99633.00;5091344;27;45450;-62
2024/01/02 04:41:41;;;;;;;;;0.00;0.00;;;;;12.68;95.75;99633.19;5080000;28;45451;-62
2024/01/02 04:44:07;;;;;;;;;0.00;0.00;;;;;12.69;95.94;99642.97;5080754;28;45818;-62
2024/01/02 04:46:34;;;;;;;;;0.00;0.00;;;;;12.72;96.05;99642.78;5061212;28;45739;-62
2024/01/02 04:48:59;;;;;;;;;0.00;0.00;;;;;12.67;95.91;99628.81;5087714;27;46498;-62
2024/01/02 04:51:25;;;;;;;;;0.00;0.00;;;;;12.57;95.85;99596.34;5071693;28;45539;-62
2024/01/02 04:53:50;;;;;;;;;0.25;0.00;;;;;12.60;95.88;99612.25;5062368;28;45823;-62
2024/01/02 04:56:16;;;;;;;;;0.00;0.00;;;;;12.58;95.85;99623.03;5079418;28;45628;-62
2024/01/02 04:58:41;;;;;;;;;0.00;0.00;;;;;12.64;96.08;99620.94;5077932;27;46286;-62
2024/01/02 05:01:06;;;;;;;;;0.00;0.00;;;;;12.56;95.91;99613.34;5078386;28;46052;-62
2024/01/02 05:03:32;;;;;;;;;0.25;0.00;;;;;12.57;95.87;99632.00;5079034;28;45483;-62
2024/01/02 05:05:57;;;;;;;;;0.00;0.00;;;;;12.62;95.93;99645.13;5078520;28;64425;-62
2024/01/02 05:08:22;;;;;;;;;1.00;0.00;;;;;12.46;95.89;99606.81;5075184;27;45457;-62
2024/01/02 05:10:48;;;;;;;;;0.00;0.00;;;;;12.60;96.27;99639.88;5080398;28;45441;-62
2024/01/02 05:13:13;;;;;;;;;2.00;0.00;;;;;12.52;95.82;99647.47;5079453;28;59650;-62
2024/01/02 05:15:38;;;;;;;;;0.00;0.00;;;;;12.48;96.32;99619.19;5079689;28;45520;-62
2024/01/02 05:18:04;;;;;;;;;0.00;0.00;;;;;12.57;96.07;99639.19;5082125;27;45494;-62
2024/01/02 05:20:29;;;;;;;;;0.00;0.00;;;;;12.57;96.10;99623.97;5088866;27;45410;-62
2024/01/02 05:22:55;;;;;;;;;0.00;0.00;;;;;12.41;96.03;99610.66;5079951;28;45431;-62
2024/01/02 05:25:20;;;;;;;;;1.00;0.00;;;;;12.49;96.14;99612.00;5056475;28;45680;-62
2024/01/02 05:27:45;;;;;;;;;0.00;0.00;;;;;12.52;96.19;99626.06;5076202;27;62233;-62
2024/01/02 05:30:11;;;;;;;;;0.00;0.00;;;;;12.45;95.89;99622.03;5090853;27;45282;-62
2024/01/02 05:32:36;;;;;;;;;0.00;0.00;;;;;12.45;96.13;99616.69;5079874;28;45333;-62
2024/01/02 05:35:02;;;;;;;;;0.00;0.00;;;;;12.50;95.89;99624.44;5079181;28;45596;-62
2024/01/02 05:37:27;;;;;;;;;0.00;0.00;;;;;12.51;96.12;99619.00;5061233;28;46840;-62
2024/01/02 05:39:55;;;;;;;;;0.00;0.00;;;;;12.46;95.65;99615.72;5088652;27;45521;-62
2024/01/02 05:42:20;;;;;;;;;0.00;0.00;;;;;12.47;95.85;99590.69;5079656;28;45484;-62
2024/01/02 05:44:47;;;;;;;;;0.00;0.00;;;;;12.48;95.61;99597.78;5078964;28;45564;-62
2024/01/02 05:47:12;;;;;;;;;2.00;0.75;;;;;12.50;95.50;99609.25;5079228;28;46131;-62
2024/01/02 05:49:37;;;;;;;;;0.50;0.00;;;;;12.46;95.50;99599.66;5079775;27;45445;-62
2024/01/02 05:52:03;;;;;;;;;0.00;0.00;;;;;12.35;95.32;99586.91;5075835;28;49794;-62
2024/01/02 05:54:28;;;;;;;;;0.25;0.25;;;;;12.44;95.81;99604.22;5078131;28;45399;-62
2024/01/02 05:56:54;;;;;;;;;0.00;0.00;;;;;12.38;95.71;99599.25;5077920;28;48261;-62
2024/01/02 05:59:19;;;;;;;;;0.25;0.00;;;;;12.45;95.58;99630.06;5082818;27;45398;-62
2024/01/02 06:01:44;;;;;;;;;0.00;0.00;;;;;12.45;95.84;99608.66;5078854;28;55179;-62
2024/01/02 06:04:09;;;;;;;;;0.00;0.00;;;;;12.39;95.39;99603.63;5078742;27;45354;-62
2024/01/02 06:06:35;;;;;;;;;1.00;0.00;;;;;12.37;95.23;99603.72;5078624;28;51412;-62
2024/01/02 06:09:00;;;;;;;;;0.25;0.00;;;;;12.27;95.41;99593.66;5080149;27;45238;-62
2024/01/02 06:11:25;;;;;;;;;0.00;0.00;;;;;12.34;95.47;99603.03;5079378;28;45417;-62
2024/01/02 06:13:51;;;;;;;;;0.00;0.00;;;;;12.25;95.60;99585.72;5078331;28;53645;-62
2024/01/02 06:16:16;;;;;;;;;0.00;0.00;;;;;12.27;95.77;99583.81;5074064;28;45500;-62
2024/01/02 06:18:41;;;;;;;;;0.00;0.00;;;;;12.30;95.43;99580.13;5074995;27;51332;-62
2024/01/02 06:21:07;;;;;;;;;0.00;0.00;;;;;12.30;95.81;99597.00;5077737;28;45500;-62
2024/01/02 06:23:33;;;;;;;;;0.00;0.00;;;;;12.25;95.69;99591.06;5077784;28;45297;-62
2024/01/02 06:25:58;;;;;;;;;0.00;0.00;;;;;12.21;96.00;99581.47;5078882;28;45463;-62
2024/01/02 06:28:24;;;;;;;;;0.00;0.00;;;;;12.22;95.85;99592.09;5084203;27;48763;-62
2024/01/02 06:30:50;;;;;;;;;0.25;0.25;;;;;12.29;95.73;99591.75;5084369;27;45432;-62
2024/01/02 06:33:16;;;;;;;;;0.50;0.00;;;;;12.23;95.77;99588.47;5078036;28;45397;-63
2024/01/02 06:35:41;;;;;;;;;0.00;0.00;;;;;12.19;95.86;99578.03;5078808;28;45988;-63
2024/01/02 06:38:07;;;;;;;;;1.50;0.00;;;;;12.13;95.82;99568.56;5081600;27;45319;-62
2024/01/02 06:40:32;;;;;;;;;0.00;0.00;;;;;12.17;96.05;99567.44;5084531;27;45388;-62
2024/01/02 06:42:57;;;;;;;;;0.00;0.00;;;;;12.27;95.87;99585.63;5052738;28;45596;-63
2024/01/02 06:45:23;;;;;;;;;1.00;0.00;;;;;12.26;95.83;99575.88;5078210;28;56177;-62
2024/01/02 06:47:48;;;;;;;;;0.00;0.00;;;;;12.18;95.73;99565.63;5057160;28;45672;-62
2024/01/02 06:50:14;;;;;;;;;0.00;0.00;;;;;12.27;95.81;99565.09;5054487;28;49452;-62
2024/01/02 06:52:39;;;;;;;;;0.00;0.00;;;;;12.23;95.79;99547.50;5077690;28;45767;-62
2024/01/02 06:55:05;;;;;;;;;1.00;0.00;;;;;12.27;95.73;99565.09;5078680;28;46201;-62
2024/01/02 06:57:31;;;;;;;;;0.00;0.00;;;;;12.28;95.55;99565.94;5078742;28;45480;-62
2024/01/02 06:59:56;;;;;;;;;0.00;0.00;;;;;12.28;95.73;99564.16;5078377;28;45325;-62
2024/01/02 07:02:22;;;;;;;;;1.00;0.00;;;;;12.26;95.42;99565.16;5077030;28;62925;-62
2024/01/02 07:04:47;;;;;;;;;0.00;0.00;;;;;12.28;95.68;99560.59;5078374;28;45506;-62
2024/01/02 07:07:12;;;;;;;;;0.00;0.00;;;;;12.29;95.46;99555.16;5060239;28;45290;-62
2024/01/02 07:09:38;;;;;;;;;0.00;0.00;;;;;12.09;95.32;99540.25;5081289;27;53497;-62
2024/01/02 07:12:04;;;;;;;;;0.75;0.00;;;;;12.17;95.61;99543.34;5077842;28;45332;-62
2024/01/02 07:14:29;;;;;;;;;0.25;0.25;;;;;12.03;95.56;99522.75;5076759;28;47955;-62
2024/01/02 07:16:54;;;;;;;;;2.75;0.00;;;;;12.15;95.60;99544.41;5078215;28;45424;-62
2024/01/02 07:19:19;;;;;;;;;0.00;0.00;;;;;12.16;96.26;99555.03;5059859;28;45488;-62
2024/01/02 07:21:46;;;;;;;;;1.00;0.00;;;;;12.14;96.18;99542.66;5077801;28;56083;-66
2024/01/02 07:24:15;;;;;;;;;0.00;0.00;;;;;12.09;96.06;99534.91;5075316;28;46694;-66
2024/01/02 07:26:41;;;;;;;;;0.00;0.00;;;;;12.09;95.99;99532.22;5077586;28;45509;-66
2024/01/02 07:29:06;;;;;;;;;0.00;0.00;;;;;12.13;96.04;99541.81;5090110;27;46057;-66
2024/01/02 07:31:32;;;;;;;;;1.25;0.00;;;;;11.90;96.29;99511.00;5058810;28;58312;-66
2024/01/02 07:33:58;;;;;;;;;0.00;0.00;;;;;12.10;96.50;99550.00;5074182;28;46218;-65
2024/01/02 07:36:23;;;;;;;;;1.00;0.00;;;;;12.10;96.41;99544.66;5080112;27;45786;-65
2024/01/02 07:38:49;;;;;;;;;0.00;0.00;;;;;12.05;96.38;99546.75;5080970;28;59434;-65
2024/01/02 07:41:14;;;;;;;;;0.00;0.00;;;;;11.85;96.41;99492.56;5071046;28;45347;-65
2024/01/02 07:43:39;;;;;;;;;0.25;0.25;;;;;12.06;96.18;99519.03;5080495;28;45478;-65
2024/01/02 07:46:05;;;;;;;;;0.00;0.00;;;;;12.07;96.63;99534.13;5062903;28;55141;-66
2024/01/02 07:48:30;;;;;;;;;0.00;0.00;;;;;12.11;96.80;99533.03;5081524;28;45527;-65
2024/01/02 07:50:55;;;;;;;;;0.50;0.00;;;;;12.07;96.66;99535.97;5075196;28;45416;-65
2024/01/02 07:53:22;;;;;;;;;0.00;0.00;;;;;12.05;96.92;99528.03;5080723;28;46106;-65
2024/01/02 07:55:48;;;;;;;;;0.00;0.00;;;;;12.09;96.81;99540.25;5081409;28;45610;-65
2024/01/02 07:58:14;;;;;;;;;0.00;0.00;;;;;12.14;97.02;99540.84;5080824;27;45384;-65
2024/01/02 08:00:39;;;;;;;;;0.00;0.00;;;;;12.14;96.77;99545.34;5080228;28;45426;-65
2024/01/02 08:03:04;;;;;;;;;1.00;1.00;;;;;12.15;97.20;99544.41;5071435;28;47244;-65
2024/01/02 08:05:30;;;;;;;;;0.00;0.00;;;;;12.16;97.22;99551.47;5080170;28;59766;-66
2024/01/02 08:07:55;;;;;;;;;6.00;0.00;;;;;12.16;97.05;99522.91;5054710;28;45454;-66
2024/01/02 08:10:20;;;;;;;;;1.00;1.00;;;;;12.14;96.82;99532.81;5080698;28;59712;-65
2024/01/02 08:12:46;;;;;;;;;0.75;0.75;;;;;12.10;97.08;99525.09;5079846;28;45581;-63
2024/01/02 08:15:12;;;;;;;;;0.00;0.00;;;;;12.15;97.10;99528.34;5068717;27;45728;-63
2024/01/02 08:17:37;;;;;;;;;0.00;0.00;;;;;12.10;97.17;99511.72;5078413;27;45313;-63
2024/01/02 08:20:03;;;;;;;;;1.75;0.00;;;;;12.12;97.19;99515.16;5079824;28;45478;-63
2024/01/02 08:22:29;;;;;;;;;0.00;0.00;;;;;12.21;96.99;99531.53;5078343;27;46377;-62
2024/01/02 08:24:54;;;;;;;;;1.00;0.00;;;;;12.19;96.92;99516.50;5077002;27;45451;-63
2024/01/02 08:27:20;;;;;;;;;0.00;0.00;;;;;12.20;97.13;99518.25;5079932;28;45360;-63
2024/01/02 08:29:45;;;;;;;;;0.00;0.00;;;;;12.26;96.95;99512.50;5079786;28;45503;-63
2024/01/02 08:32:11;;;;;;;;;0.00;0.00;;;;;12.24;96.95;99527.81;5080241;28;46277;-63
2024/01/02 08:34:36;;;;;;;;;0.00;0.00;;;;;12.17;97.10;99500.53;5060641;28;45506;-63
2024/01/02 08:37:01;;;;;;;;;0.00;0.00;;;;;12.19;96.96;99511.16;5078285;27;45348;-63
2024/01/02 08:39:27;;;;;;;;;1.00;0.00;;;;;12.21;96.89;99504.78;5079609;28;45441;-63
2024/01/02 08:41:52;;;;;;;;;1.00;0.00;;;;;12.21;96.99;99501.22;5078667;27;47233;-63
2024/01/02 08:44:17;;;;;;;;;2.00;0.00;;;;;12.23;96.80;99508.22;5060165;28;50651;-63
2024/01/02 08:46:43;;;;;;;;;0.00;0.00;;;;;12.30;97.01;99510.53;5079677;27;57554;-63
2024/01/02 08:49:08;;;;;;;;;0.00;0.00;;;;;12.28;97.11;99502.59;5085507;27;53961;-63
2024/01/02 08:51:34;;;;;;;;;0.00;0.00;;;;;12.19;97.02;99492.44;5080082;28;45978;-63
2024/01/02 08:53:59;;;;;;;;;0.00;0.00;;;;;12.22;97.01;99473.53;5080326;27;45403;-63
2024/01/02 08:56:24;;;;;;;;;1.75;1.75;;;;;12.27;97.19;99486.63;5080004;27;51872;-63
2024/01/02 08:58:50;;;;;;;;;0.00;0.00;;;;;12.19;97.30;99485.25;5060215;28;45513;-63
2024/01/02 09:01:17;;;;;;;;;1.00;0.00;;;;;12.26;97.08;99498.28;5077620;28;45399;-63
2024/01/02 09:03:43;;;;;;;;;0.50;0.00;;;;;12.23;97.53;99494.00;5084175;27;45737;-63
2024/01/02 09:06:08;;;;;;;;;1.00;1.00;;;;;12.14;97.48;99457.91;5079860;27;45353;-63
2024/01/02 09:08:33;;;;;;;;;0.00;0.00;;;;;12.22;97.47;99468.19;5076608;27;45718;-63
2024/01/02 09:10:59;;;;;;;;;1.75;0.00;;;;;12.20;97.50;99457.56;5073060;27;52430;-63
2024/01/02 09:13:24;;;;;;;;;2.25;1.00;;;;;12.31;97.65;99472.09;5075661;28;45689;-63
2024/01/02 09:15:50;;;;;;;;;0.25;0.00;;;;;12.24;97.58;99458.25;5075188;28;45596;-63
2024/01/02 09:18:15;;;;;;;;;0.00;0.00;;;;;12.35;97.51;99468.31;5076924;28;50862;-63
2024/01/02 09:20:41;;;;;;;;;0.00;0.00;;;;;12.30;97.50;99473.94;5079911;27;46391;-63
2024/01/02 09:23:06;;;;;;;;;1.00;0.00;;;;;12.34;97.81;99479.97;5077912;27;45394;-63
2024/01/02 09:25:35;;;;;;;;;0.75;0.75;;;;;12.30;97.70;99457.03;5059567;28;45292;-63
2024/01/02 09:28:04;;;;;;;;;1.00;0.00;;;;;12.28;97.95;99446.41;5058949;28;45892;-63
2024/01/02 09:30:29;;;;;;;;;0.00;0.00;;;;;12.27;98.03;99436.66;5077888;28;45725;-63
2024/01/02 09:32:55;;;;;;;;;0.25;0.00;;;;;12.34;98.18;99461.22;5075946;28;45465;-63
2024/01/02 09:35:20;;;;;;;;;0.00;0.00;;;;;12.33;98.19;99455.03;5078606;27;45386;-63
2024/01/02 09:37:45;;;;;;;;;0.00;0.00;;;;;12.32;98.22;99472.03;5078073;28;49745;-63
2024/01/02 09:40:22;;;;;;;;;0.00;0.00;;;;;12.39;98.10;99456.47;5076765;27;50497;-63
2024/01/02 09:43:26;;;;;;;;;0.00;0.00;;;;;12.44;98.32;99458.88;5068810;27;45429;-63
2024/01/02 09:46:08;;;;;;;;;1.00;1.00;;;;;12.42;98.14;99454.44;4975698;28;45641;-63
2024/01/02 09:48:54;;;;;;;;;0.75;0.00;;;;;12.41;98.22;99455.44;5069700;27;46911;-63
2024/01/02 09:51:51;;;;;;;;;1.00;0.25;;;;;12.40;98.52;99445.66;5072340;28;45445;-63
2024/01/02 09:54:41;;;;;;;;;0.00;0.00;;;;;12.46;98.31;99449.78;5078409;27;45677;-63
2024/01/02 09:57:16;;;;;;;;;0.75;0.75;;;;;12.38;98.35;99425.31;5076752;28;46081;-63
2024/01/02 10:00:16;;;;;;;;;0.00;0.00;;;;;12.48;98.38;99450.56;5074114;28;45366;-63
2024/01/02 10:03:07;;;;;;;;;0.00;0.00;;;;;12.39;98.29;99425.19;5044192;28;45538;-63
2024/01/02 10:05:44;;;;;;;;;0.00;0.00;;;;;12.44;98.48;99427.59;5075053;27;45434;-62
2024/01/02 10:08:28;;;;;;;;;0.00;0.00;;;;;12.52;98.51;99448.56;5076290;28;45607;-63
2024/01/02 10:11:30;;;;;;;;;0.00;0.00;;;;;12.50;98.44;99445.97;5072600;28;45355;-63
2024/01/02 10:14:03;;;;;;;;;0.00;0.00;;;;;12.53;98.18;99429.72;5064085;28;46190;-63
2024/01/02 10:16:38;;;;;;;;;0.00;0.00;;;;;12.40;98.21;99410.03;5076198;28;45896;-63
2024/01/02 10:19:36;;;;;;;;;0.00;0.00;;;;;12.58;98.23;99442.84;5077667;28;45434;-63
2024/01/02 10:22:45;;;;;;;;;1.00;0.00;;;;;12.59;98.18;99436.50;5059131;28;45289;-64
2024/01/02 10:25:15;;;;;;;;;0.25;0.25;;;;;12.55;98.13;99432.31;5064487;28;45383;-63
2024/01/02 10:27:46;;;;;;;;;0.50;0.50;;;;;12.63;98.24;99443.41;5075078;27;45513;-63
2024/01/02 10:30:18;;;;;;;;;0.00;0.00;;;;;12.65;98.27;99436.13;5074266;28;45610;-63
2024/01/02 10:32:54;;;;;;;;;0.75;0.00;;;;;12.58;98.30;99416.06;5077205;28;45587;-63
2024/01/02 10:35:43;;;;;;;;;0.00;0.00;;;;;12.67;98.00;99441.41;5077570;28;47305;-63
2024/01/02 10:38:24;;;;;;;;;0.00;0.00;;;;;12.67;98.01;99434.22;5057718;28;45439;-63
2024/01/02 10:41:34;;;;;;;;;0.00;0.00;;;;;12.68;97.94;99419.00;5075797;27;45499;-63
2024/01/02 10:44:13;;;;;;;;;0.75;0.75;;;;;12.67;98.12;99423.50;5050943;28;45572;-63
2024/01/02 10:46:47;;;;;;;;;0.50;0.50;;;;;12.62;97.86;99400.66;5076175;28;45649;-63
2024/01/02 10:49:36;;;;;;;;;0.00;0.00;;;;;12.69;98.02;99410.03;5075894;28;45627;-63
2024/01/02 10:52:19;;;;;;;;;0.00;0.00;;;;;12.59;97.94;99404.38;5073346;27;45699;-63
2024/01/02 10:54:51;;;;;;;;;0.00;0.00;;;;;12.71;98.06;99405.44;5074021;28;45792;-63
2024/01/02 10:57:27;;;;;;;;;0.00;0.00;;;;;12.69;98.06;99410.03;5075602;28;47921;-63
2024/01/02 11:00:10;;;;;;;;;0.00;0.00;;;;;12.70;98.17;99390.34;5076992;28;45713;-63
2024/01/02 11:02:45;;;;;;;;;0.00;0.00;;;;;12.70;97.79;99396.56;5063569;28;45464;-63
2024/01/02 11:05:23;;;;;;;;;0.50;0.00;;;;;12.69;97.96;99393.97;5080864;28;45525;-63
2024/01/02 11:07:54;;;;;;;;;0.25;0.25;;;;;12.63;98.05;99373.81;5060972;28;47731;-62
2024/01/02 11:10:24;;;;;;;;;1.00;1.00;;;;;12.53;97.92;99365.50;5080634;28;45942;-62
2024/01/02 11:13:01;;;;;;;;;1.00;0.00;;;;;12.66;97.98;99378.94;5081252;28;45400;-62
2024/01/02 11:15:30;;;;;;;;;0.00;0.00;;;;;12.67;98.04;99395.88;5080737;28;45514;-63
2024/01/02 11:17:59;;;;;;;;;1.00;0.00;;;;;12.45;97.83;99334.81;5078776;28;45650;-62
2024/01/02 11:20:44;;;;;;;;;0.00;0.00;;;;;12.68;98.11;99377.06;5057734;28;45861;-63
2024/01/02 11:23:13;;;;;;;;;1.75;0.00;;;;;12.39;97.97;99352.94;5056711;28;45560;-63
2024/01/02 11:25:47;;;;;;;;;0.00;0.00;;;;;12.47;98.09;99338.25;5059761;28;45834;-62
2024/01/02 11:28:15;;;;;;;;;1.00;0.00;;;;;12.41;97.95;99321.63;5079606;28;46452;-62
2024/01/02 11:30:41;;;;;;;;;0.00;0.00;;;;;12.54;97.84;99353.81;5077396;28;46323;-63
2024/01/02 11:33:26;;;;;;;;;0.00;0.00;;;;;12.64;98.29;99340.72;5079449;28;45386;-63
2024/01/02 11:36:18;;;;;;;;;0.00;0.00;;;;;12.60;98.24;99332.00;5073484;28;45361;-63